Time;durP1;ratioP1;P1;durP2;ratioP2;P2;SDS_P1;SDS_P2;PMS_P1;PMS_P2;Temp;Humidity;BMP_temperature;BMP_pressure;BME280_temperature;BME280_humidity;BME280_pressure;Samples;Min_cycle;Max_cycle;Signal;HPM_P1;HPM_P2
2022/04/27 04:02:41;;;;;;;42.30;23.30;;;9.90;99.90;;;;;;4991853;28;20491;-80
2022/04/27 04:05:08;;;;;;;41.87;23.73;;;9.90;99.90;;;;;;4991903;28;20538;-80
2022/04/27 04:07:35;;;;;;;42.13;23.07;;;9.90;99.90;;;;;;4994004;28;20468;-80
2022/04/27 04:10:03;;;;;;;41.50;23.57;;;10.00;99.90;;;;;;4993378;28;20439;-80
2022/04/27 04:12:30;;;;;;;43.93;23.37;;;10.00;99.90;;;;;;4972992;28;20844;-80
2022/04/27 04:14:57;;;;;;;40.10;23.53;;;10.10;99.90;;;;;;4972215;28;20814;-80
2022/04/27 04:17:24;;;;;;;38.73;22.70;;;10.10;99.90;;;;;;4972097;28;20584;-80
2022/04/27 04:19:52;;;;;;;37.23;21.70;;;10.10;99.90;;;;;;4972132;28;20465;-81
2022/04/27 04:22:19;;;;;;;36.43;20.90;;;10.10;99.90;;;;;;4972765;28;20640;-80
2022/04/27 04:30:11;;;;;;;39.30;22.77;;;10.10;99.90;;;;;;4971436;28;20447;-81
2022/04/27 04:32:38;;;;;;;39.97;21.23;;;10.10;99.90;;;;;;4971279;28;20455;-81
2022/04/27 04:35:08;;;;;;;39.07;22.90;;;10.10;99.90;;;;;;4972711;28;20981;-81
2022/04/27 04:37:35;;;;;;;43.70;24.70;;;10.20;99.90;;;;;;4972867;28;20547;-81
2022/04/27 04:40:02;;;;;;;47.03;23.77;;;10.20;99.90;;;;;;4973342;28;20455;-81
2022/04/27 04:42:29;;;;;;;39.20;23.27;;;10.20;99.90;;;;;;4972963;28;20503;-82
2022/04/27 04:44:56;;;;;;;42.87;23.90;;;10.20;99.90;;;;;;4973023;28;20475;-81
2022/04/27 04:47:23;;;;;;;43.57;23.97;;;10.20;99.90;;;;;;4972653;28;20876;-81
2022/04/27 04:49:50;;;;;;;39.40;22.97;;;10.20;99.90;;;;;;4972635;28;20460;-81
2022/04/27 04:52:18;;;;;;;43.83;22.80;;;10.20;99.90;;;;;;4973199;28;20507;-81
2022/04/27 04:54:45;;;;;;;37.33;23.37;;;10.20;99.90;;;;;;4973615;28;20559;-81
2022/04/27 04:57:12;;;;;;;35.47;22.00;;;10.30;99.90;;;;;;4972667;28;20457;-82
2022/04/27 04:59:39;;;;;;;37.93;22.93;;;10.20;99.90;;;;;;4971139;28;20460;-69
2022/04/27 05:02:06;;;;;;;39.83;20.40;;;10.30;99.90;;;;;;4967599;28;20575;-69
2022/04/27 05:04:32;;;;;;;38.93;22.00;;;10.20;99.90;;;;;;4968026;28;20463;-69
2022/04/27 05:06:59;;;;;;;42.63;23.83;;;10.30;99.90;;;;;;4967412;28;20463;-69
2022/04/27 05:09:28;;;;;;;37.53;22.87;;;10.20;99.90;;;;;;4967696;28;20867;-70
2022/04/27 05:11:54;;;;;;;40.23;22.77;;;10.20;99.90;;;;;;4967538;28;20487;-70
2022/04/27 05:14:21;;;;;;;42.10;23.60;;;10.20;99.90;;;;;;4967872;28;20467;-70
2022/04/27 05:16:48;;;;;;;36.83;22.37;;;10.20;99.90;;;;;;4967592;28;20823;-70
2022/04/27 05:19:15;;;;;;;40.87;23.00;;;10.20;99.90;;;;;;4967725;28;20457;-70
2022/04/27 05:21:42;;;;;;;35.30;20.70;;;10.20;99.90;;;;;;4973458;28;20485;-77
2022/04/27 05:24:11;;;;;;;35.83;21.83;;;10.20;99.90;;;;;;4975478;28;20587;-78
2022/04/27 05:26:39;;;;;;;33.83;20.60;;;10.30;99.90;;;;;;4973436;28;20463;-77
2022/04/27 05:31:57;;;;;;;32.87;20.07;;;10.40;99.90;;;;;;4971825;28;20467;-78
2022/04/27 05:34:24;;;;;;;34.83;20.37;;;10.40;99.90;;;;;;4972966;28;20449;-79
2022/04/27 05:36:52;;;;;;;32.07;19.10;;;10.40;99.90;;;;;;4970647;28;20471;-78
2022/04/27 05:39:20;;;;;;;29.50;19.53;;;10.40;99.90;;;;;;4971155;28;20455;-78
2022/04/27 05:41:50;;;;;;;34.27;19.20;;;10.30;99.90;;;;;;4970681;28;20480;-79
2022/04/27 05:44:17;;;;;;;34.27;19.53;;;10.30;99.90;;;;;;4973109;28;20492;-78
2022/04/27 05:46:45;;;;;;;34.57;19.67;;;10.30;99.90;;;;;;4969506;28;21299;-79
2022/04/27 05:49:12;;;;;;;34.37;20.60;;;10.30;99.90;;;;;;4970346;28;20456;-78
2022/04/27 05:51:39;;;;;;;31.17;19.07;;;10.30;99.90;;;;;;4968663;28;20494;-78
2022/04/27 05:54:06;;;;;;;34.33;19.63;;;10.30;99.90;;;;;;4969054;28;20471;-77
2022/04/27 05:56:32;;;;;;;32.90;18.80;;;10.30;99.90;;;;;;4969396;28;21172;-79
2022/04/27 05:59:01;;;;;;;37.60;17.57;;;10.30;99.90;;;;;;4969939;28;20901;-78
2022/04/27 06:01:28;;;;;;;27.77;17.10;;;10.30;99.90;;;;;;4969722;28;20836;-78
2022/04/27 06:03:55;;;;;;;19.40;13.30;;;10.30;99.90;;;;;;4969122;28;20532;-78
2022/04/27 06:06:23;;;;;;;23.90;13.73;;;10.30;99.90;;;;;;4970851;28;20889;-79
2022/04/27 06:08:50;;;;;;;23.97;15.43;;;10.40;99.90;;;;;;4970925;28;20480;-78
2022/04/27 06:11:18;;;;;;;22.50;14.50;;;10.40;99.90;;;;;;4970786;28;20487;-79
2022/04/27 06:13:45;;;;;;;22.97;14.63;;;10.50;99.90;;;;;;4972476;28;20456;-79
2022/04/27 06:16:13;;;;;;;17.03;11.70;;;10.50;99.90;;;;;;4970438;28;20449;-77
2022/04/27 06:18:40;;;;;;;17.10;12.03;;;10.40;99.90;;;;;;4970776;28;20456;-79
2022/04/27 06:21:07;;;;;;;20.00;14.23;;;10.40;99.90;;;;;;4971638;28;20481;-76
2022/04/27 06:23:34;;;;;;;23.27;15.03;;;10.40;99.90;;;;;;4972132;28;21109;-78
2022/04/27 06:26:02;;;;;;;24.80;13.87;;;10.40;99.90;;;;;;4970354;28;20463;-78
2022/04/27 06:28:29;;;;;;;21.43;13.77;;;10.40;99.90;;;;;;4970054;28;20507;-78
2022/04/27 06:30:56;;;;;;;22.40;14.70;;;10.40;99.90;;;;;;4969949;28;20484;-78
2022/04/27 06:33:24;;;;;;;18.90;12.63;;;10.50;99.90;;;;;;4969476;28;20547;-78
2022/04/27 06:35:51;;;;;;;20.70;12.73;;;10.50;99.90;;;;;;4969787;28;20456;-78
2022/04/27 06:38:18;;;;;;;19.90;13.33;;;10.50;99.90;;;;;;4969789;28;20570;-79
2022/04/27 06:40:45;;;;;;;17.97;12.10;;;10.50;99.90;;;;;;4969490;28;20834;-78
2022/04/27 06:43:12;;;;;;;17.17;11.70;;;10.60;99.90;;;;;;4969139;28;21184;-79
2022/04/27 06:45:39;;;;;;;15.27;10.53;;;10.70;99.90;;;;;;4969366;28;20451;-78
2022/04/27 06:48:07;;;;;;;13.93;10.43;;;10.60;99.90;;;;;;4969090;28;20463;-78
2022/04/27 06:50:35;;;;;;;16.70;10.63;;;10.60;99.90;;;;;;4971101;28;20514;-79
2022/04/27 06:53:02;;;;;;;16.63;10.20;;;10.70;99.90;;;;;;4971046;28;20452;-78
2022/04/27 06:55:29;;;;;;;14.07;9.90;;;10.70;99.90;;;;;;4971620;28;20490;-79
2022/04/27 06:57:56;;;;;;;9.40;7.37;;;10.70;99.90;;;;;;4969896;28;20488;-78
2022/04/27 07:00:25;;;;;;;7.13;6.43;;;10.70;99.90;;;;;;4970024;28;20465;-78
2022/04/27 07:02:53;;;;;;;8.60;6.50;;;10.70;99.90;;;;;;4973228;28;21307;-78
2022/04/27 07:05:21;;;;;;;6.80;5.70;;;10.70;99.90;;;;;;4975271;28;20468;-78
2022/04/27 07:07:52;;;;;;;7.50;5.53;;;10.70;99.90;;;;;;4975238;28;20488;-78
2022/04/27 07:10:19;;;;;;;6.20;5.60;;;10.70;99.90;;;;;;4975996;28;20951;-78
2022/04/27 07:12:47;;;;;;;7.93;5.37;;;10.70;99.90;;;;;;4975597;28;20519;-78
2022/04/27 07:15:15;;;;;;;5.77;5.17;;;10.80;99.90;;;;;;4976302;28;20464;-78
2022/04/27 07:17:42;;;;;;;6.90;4.90;;;10.80;99.90;;;;;;4974347;28;20471;-78
2022/04/27 07:20:10;;;;;;;5.90;4.73;;;10.80;99.90;;;;;;4975363;28;20456;-78
2022/04/27 07:22:37;;;;;;;5.67;4.57;;;10.80;99.90;;;;;;4975415;28;20543;-78
2022/04/27 07:25:06;;;;;;;5.70;4.87;;;10.70;99.90;;;;;;4975104;28;20813;-78
2022/04/27 07:27:33;;;;;;;5.70;4.93;;;10.80;99.90;;;;;;4974059;28;20508;-78
2022/04/27 07:30:00;;;;;;;5.70;5.10;;;10.80;99.90;;;;;;4974617;28;20452;-78
2022/04/27 07:32:26;;;;;;;6.30;5.47;;;10.80;99.90;;;;;;4974553;28;21006;-78
2022/04/27 07:34:53;;;;;;;5.40;4.90;;;10.90;99.90;;;;;;4974329;28;20972;-78
2022/04/27 07:37:20;;;;;;;6.00;5.40;;;10.90;99.90;;;;;;4974002;28;20458;-78
2022/04/27 07:39:47;;;;;;;5.67;5.10;;;11.00;99.90;;;;;;4972946;28;20455;-77
2022/04/27 07:42:16;;;;;;;4.93;4.40;;;11.00;99.90;;;;;;4971136;28;20476;-78
2022/04/27 07:44:43;;;;;;;5.70;5.10;;;11.00;99.90;;;;;;4970998;28;20964;-78
2022/04/27 07:47:13;;;;;;;5.70;4.70;;;11.10;99.90;;;;;;4969486;28;20456;-78
2022/04/27 07:49:40;;;;;;;5.20;4.70;;;11.10;99.90;;;;;;4969608;28;20523;-78
2022/04/27 07:52:07;;;;;;;8.03;4.50;;;11.10;99.90;;;;;;4969849;28;20505;-78
2022/04/27 07:54:34;;;;;;;5.20;4.00;;;11.20;99.90;;;;;;4970092;28;21011;-78
2022/04/27 07:57:01;;;;;;;4.77;4.20;;;11.20;99.90;;;;;;4969267;28;20457;-78
2022/04/27 07:59:29;;;;;;;5.37;4.30;;;11.20;99.90;;;;;;4969785;28;20471;-78
2022/04/27 08:01:56;;;;;;;4.70;4.30;;;11.20;99.90;;;;;;4969867;28;20496;-78
2022/04/27 08:04:23;;;;;;;7.20;4.53;;;11.30;99.90;;;;;;4970609;28;20497;-78
2022/04/27 08:06:50;;;;;;;6.43;4.70;;;11.30;99.90;;;;;;4969173;28;21008;-78
2022/04/27 08:09:17;;;;;;;5.60;4.67;;;11.30;99.90;;;;;;4969606;28;21044;-78
2022/04/27 08:11:44;;;;;;;5.57;4.87;;;11.30;99.90;;;;;;4970016;28;20525;-78
2022/04/27 08:14:11;;;;;;;6.37;4.30;;;11.30;99.90;;;;;;4969567;28;20518;-78
2022/04/27 08:16:39;;;;;;;5.67;4.90;;;11.30;99.90;;;;;;4968866;28;20535;-78
2022/04/27 08:19:06;;;;;;;6.83;5.10;;;11.40;99.90;;;;;;4969910;28;20465;-78
2022/04/27 08:21:33;;;;;;;7.70;4.60;;;11.40;99.90;;;;;;4972282;28;20508;-78
2022/04/27 08:24:03;;;;;;;6.43;5.10;;;11.50;99.90;;;;;;4971054;28;20579;-78
2022/04/27 08:26:30;;;;;;;5.67;4.73;;;11.60;99.90;;;;;;4971590;28;20468;-77
2022/04/27 08:28:57;;;;;;;5.17;4.67;;;11.60;99.90;;;;;;4971719;28;20527;-77
2022/04/27 08:31:27;;;;;;;6.13;4.97;;;11.70;99.90;;;;;;4970826;28;20474;-77
2022/04/27 08:33:55;;;;;;;6.83;4.50;;;11.80;99.90;;;;;;4968027;28;20452;-77
2022/04/27 08:36:22;;;;;;;4.80;4.30;;;11.80;99.90;;;;;;4967853;28;20550;-77
2022/04/27 08:38:51;;;;;;;7.10;5.10;;;11.80;99.90;;;;;;4968342;28;20594;-77
2022/04/27 08:41:18;;;;;;;4.90;4.50;;;11.80;99.90;;;;;;4967635;28;20486;-77
2022/04/27 08:43:44;;;;;;;4.93;4.43;;;11.80;99.90;;;;;;4967633;28;20506;-77
2022/04/27 08:46:14;;;;;;;5.50;4.73;;;11.80;99.90;;;;;;4968210;28;20449;-77
2022/04/27 08:48:42;;;;;;;5.67;4.87;;;11.90;99.90;;;;;;4967741;28;20887;-77
2022/04/27 08:51:11;;;;;;;7.23;4.70;;;12.00;99.90;;;;;;4967525;28;21025;-78
2022/04/27 08:53:38;;;;;;;5.03;4.53;;;12.10;99.90;;;;;;4967832;28;20543;-77
2022/04/27 08:56:05;;;;;;;8.10;4.27;;;12.20;99.90;;;;;;4967650;28;20459;-77
2022/04/27 08:58:32;;;;;;;7.33;4.90;;;12.20;99.90;;;;;;4967186;28;20461;-77
2022/04/27 09:01:00;;;;;;;6.17;5.43;;;12.30;99.90;;;;;;4967147;28;20567;-77
2022/04/27 09:03:30;;;;;;;7.63;5.67;;;12.40;99.90;;;;;;4968070;28;20851;-77
2022/04/27 09:05:59;;;;;;;5.60;4.87;;;12.50;99.90;;;;;;4967573;28;20459;-77
2022/04/27 09:08:38;;;;;;;5.80;5.13;;;12.50;99.90;;;;;;4968143;28;20457;-77
2022/04/27 09:11:21;;;;;;;5.80;5.20;;;12.60;99.90;;;;;;4969838;28;21011;-77
2022/04/27 09:13:53;;;;;;;5.70;5.10;;;12.70;99.90;;;;;;4970778;28;20456;-77
2022/04/27 09:16:22;;;;;;;6.93;5.90;;;12.70;99.90;;;;;;4969380;28;20551;-79
2022/04/27 09:22:02;;;;;;;5.77;5.20;;;12.70;99.90;;;;;;4970662;28;20460;-78
2022/04/27 09:24:46;;;;;;;6.77;4.70;;;12.70;99.90;;;;;;4970611;28;20484;-78
2022/04/27 09:27:18;;;;;;;6.17;5.57;;;12.70;99.90;;;;;;4969991;28;20441;-78
2022/04/27 09:29:56;;;;;;;5.83;4.70;;;12.90;99.90;;;;;;4970989;28;21061;-79
2022/04/27 09:32:23;;;;;;;6.83;5.10;;;13.00;99.90;;;;;;4970785;28;20478;-79
2022/04/27 09:34:50;;;;;;;5.43;4.93;;;13.10;99.90;;;;;;4971833;28;20503;-77
2022/04/27 09:37:18;;;;;;;6.53;5.23;;;13.20;99.90;;;;;;4972957;28;20488;-81
2022/04/27 09:39:59;;;;;;;6.27;5.57;;;13.20;99.90;;;;;;4972048;28;20488;-79
2022/04/27 09:42:30;;;;;;;6.10;4.60;;;13.30;99.90;;;;;;4970994;28;20504;-77
2022/04/27 09:45:15;;;;;;;5.70;5.10;;;13.30;99.90;;;;;;4970169;28;20489;-77
2022/04/27 09:47:46;;;;;;;6.33;5.73;;;13.50;99.90;;;;;;4969363;28;20525;-77
2022/04/27 09:50:13;;;;;;;4.87;4.37;;;13.70;99.90;;;;;;4970373;28;20839;-77
2022/04/27 09:52:43;;;;;;;6.00;4.90;;;13.70;99.90;;;;;;4970477;28;20511;-78
2022/04/27 09:55:12;;;;;;;4.87;4.37;;;13.80;99.90;;;;;;4970690;28;20492;-78
2022/04/27 09:57:40;;;;;;;5.33;4.80;;;13.80;99.90;;;;;;4969708;28;20547;-78
2022/04/27 10:00:08;;;;;;;5.50;5.00;;;13.80;99.90;;;;;;4970482;28;20461;-78
2022/04/27 10:02:38;;;;;;;6.37;4.93;;;13.90;99.90;;;;;;4971847;28;21066;-79
2022/04/27 10:05:06;;;;;;;5.83;4.67;;;13.90;99.90;;;;;;4972261;28;20503;-78
2022/04/27 10:07:35;;;;;;;6.00;5.43;;;14.00;99.90;;;;;;4971274;28;21015;-78
2022/04/27 10:10:04;;;;;;;7.20;4.93;;;13.90;99.90;;;;;;4972976;28;21235;-78
2022/04/27 10:12:37;;;;;;;5.80;4.90;;;13.90;99.90;;;;;;4972366;28;20993;-79
2022/04/27 10:15:05;;;;;;;7.00;5.33;;;13.90;99.90;;;;;;4970219;28;20433;-78
2022/04/27 10:17:32;;;;;;;7.77;5.33;;;14.00;99.90;;;;;;4968936;28;20457;-78
2022/04/27 10:19:59;;;;;;;6.10;5.50;;;14.20;99.90;;;;;;4968402;28;20539;-79
2022/04/27 10:22:28;;;;;;;6.77;6.07;;;14.20;99.90;;;;;;4972064;28;20483;-79
2022/04/27 10:24:56;;;;;;;6.60;5.73;;;14.30;99.90;;;;;;4972124;28;20493;-78
2022/04/27 10:27:25;;;;;;;8.20;5.23;;;14.30;99.90;;;;;;4969663;28;20458;-79
2022/04/27 10:29:58;;;;;;;9.30;5.23;;;14.50;99.90;;;;;;4973710;28;21486;-80
2022/04/27 10:32:39;;;;;;;6.43;5.27;;;14.70;99.90;;;;;;4974519;28;20523;-79
2022/04/27 10:35:18;;;;;;;5.57;4.40;;;14.90;99.90;;;;;;4971697;28;20436;-78
2022/04/27 10:37:46;;;;;;;6.60;5.57;;;15.20;99.90;;;;;;4969151;28;20456;-78
2022/04/27 10:40:31;;;;;;;6.90;5.20;;;15.40;99.90;;;;;;4972662;28;20448;-78
2022/04/27 10:43:42;;;;;;;7.67;5.00;;;15.40;99.90;;;;;;4972428;28;20459;-78
2022/04/27 10:46:38;;;;;;;5.93;5.37;;;15.40;99.90;;;;;;4972447;28;20543;-78
2022/04/27 10:49:23;;;;;;;5.40;4.90;;;15.60;99.90;;;;;;4972859;28;20437;-78
2022/04/27 10:52:01;;;;;;;5.33;4.83;;;15.60;99.90;;;;;;4972295;28;20514;-78
2022/04/27 10:54:28;;;;;;;5.70;5.10;;;15.70;99.90;;;;;;4972496;28;21272;-78
2022/04/27 10:56:56;;;;;;;5.60;4.77;;;15.60;99.90;;;;;;4971762;28;20976;-77
2022/04/27 10:59:45;;;;;;;6.13;4.67;;;15.60;99.90;;;;;;4971943;28;20547;-78
2022/04/27 11:02:35;;;;;;;6.30;5.70;;;15.70;99.90;;;;;;4972149;28;20476;-78
2022/04/27 11:05:03;;;;;;;5.63;5.07;;;15.70;99.90;;;;;;4973063;28;20512;-78
2022/04/27 11:07:43;;;;;;;5.50;4.63;;;15.70;99.90;;;;;;4973498;28;20456;-81
2022/04/27 11:10:15;;;;;;;5.93;5.33;;;15.70;99.90;;;;;;4973233;28;20451;-78
2022/04/27 11:12:46;;;;;;;5.10;4.60;;;15.60;99.90;;;;;;4971640;28;20823;-76
2022/04/27 11:15:16;;;;;;;7.63;5.00;;;15.60;99.90;;;;;;4971167;28;20444;-77
2022/04/27 11:17:44;;;;;;;6.30;5.10;;;15.60;99.90;;;;;;4970352;28;20456;-77
2022/04/27 11:20:29;;;;;;;5.20;4.70;;;15.60;99.90;;;;;;4974003;28;20928;-78
2022/04/27 11:22:57;;;;;;;6.07;4.87;;;15.50;99.90;;;;;;4970836;28;21271;-77
2022/04/27 11:25:26;;;;;;;7.00;5.30;;;15.50;99.90;;;;;;4968241;28;20500;-69
2022/04/27 11:27:52;;;;;;;5.43;4.93;;;15.50;99.90;;;;;;4967823;28;20483;-68
2022/04/27 11:30:21;;;;;;;5.60;5.10;;;15.40;99.90;;;;;;4968658;28;20468;-68
2022/04/27 11:32:50;;;;;;;6.80;5.57;;;15.30;99.90;;;;;;4970154;28;20546;-77
2022/04/27 11:35:18;;;;;;;6.43;5.83;;;15.30;99.90;;;;;;4970862;28;20500;-77
2022/04/27 11:37:45;;;;;;;10.97;5.50;;;15.20;99.90;;;;;;4969458;28;20460;-78
2022/04/27 11:40:14;;;;;;;7.57;5.43;;;15.20;99.90;;;;;;4970091;28;20480;-78
2022/04/27 11:42:46;;;;;;;6.13;5.50;;;15.20;99.90;;;;;;4970141;28;20539;-78
2022/04/27 11:45:14;;;;;;;7.03;5.93;;;15.30;99.90;;;;;;4969860;28;20527;-77
2022/04/27 11:47:41;;;;;;;6.30;5.67;;;15.30;99.90;;;;;;4969200;28;20456;-77
2022/04/27 11:50:12;;;;;;;6.87;6.23;;;15.40;99.90;;;;;;4968886;28;20985;-78
2022/04/27 11:52:39;;;;;;;7.80;5.60;;;15.60;99.90;;;;;;4970211;28;20456;-78
2022/04/27 11:55:12;;;;;;;6.83;6.13;;;15.60;99.90;;;;;;4970187;28;20452;-78
2022/04/27 11:57:39;;;;;;;6.63;5.80;;;15.70;99.90;;;;;;4969055;28;20471;-78
2022/04/27 12:00:08;;;;;;;6.10;5.50;;;15.80;99.90;;;;;;4969372;28;20557;-78
2022/04/27 12:02:35;;;;;;;6.73;6.10;;;16.00;99.90;;;;;;4968977;28;20490;-78
2022/04/27 12:05:03;;;;;;;6.83;5.43;;;16.50;99.90;;;;;;4969514;28;20587;-78
2022/04/27 12:07:37;;;;;;;9.90;5.93;;;16.50;99.90;;;;;;4969224;28;20499;-78
2022/04/27 12:10:06;;;;;;;7.37;6.00;;;16.40;99.90;;;;;;4969302;28;20527;-78
2022/04/27 12:12:33;;;;;;;7.33;6.03;;;16.40;99.90;;;;;;4969252;28;20535;-78
2022/04/27 12:15:07;;;;;;;7.10;6.40;;;16.50;99.90;;;;;;4969813;28;20949;-78
2022/04/27 12:17:50;;;;;;;7.17;6.33;;;16.60;99.90;;;;;;4968957;28;20492;-78
2022/04/27 12:20:34;;;;;;;6.80;6.10;;;16.60;99.90;;;;;;4969904;28;20524;-70
2022/04/27 12:23:05;;;;;;;6.57;5.50;;;16.60;99.90;;;;;;4968533;28;20452;-69
2022/04/27 12:25:34;;;;;;;6.83;5.90;;;16.60;99.90;;;;;;4968296;28;20496;-69
2022/04/27 12:28:02;;;;;;;7.27;5.90;;;16.60;99.90;;;;;;4967497;28;20460;-71
2022/04/27 12:30:29;;;;;;;6.13;5.57;;;16.50;99.90;;;;;;4969255;28;20460;-77
2022/04/27 12:32:57;;;;;;;6.10;5.50;;;16.50;99.90;;;;;;4969604;28;20504;-77
2022/04/27 12:38:19;;;;;;;17.00;9.50;;;16.50;99.90;;;;;;4968885;28;20456;-76
2022/04/27 12:40:46;;;;;;;6.47;5.87;;;16.70;99.90;;;;;;4969423;28;20616;-76
2022/04/27 12:43:14;;;;;;;7.47;5.83;;;16.80;99.90;;;;;;4969716;28;20459;-77
2022/04/27 12:45:57;;;;;;;7.87;5.93;;;16.80;99.90;;;;;;4969268;28;21193;-77
2022/04/27 12:48:31;;;;;;;20.83;8.37;;;16.90;99.90;;;;;;4968883;28;20510;-76
2022/04/27 12:50:59;;;;;;;7.40;6.40;;;16.90;99.90;;;;;;4969042;28;21064;-72
2022/04/27 12:53:27;;;;;;;6.43;5.80;;;16.80;99.90;;;;;;4967871;28;20479;-76
2022/04/27 12:56:12;;;;;;;7.37;5.60;;;16.70;99.90;;;;;;4968202;28;20912;-77
2022/04/27 12:58:39;;;;;;;8.80;6.10;;;16.70;99.90;;;;;;4968084;28;20463;-77
2022/04/27 13:01:06;;;;;;;9.90;5.47;;;16.60;99.90;;;;;;4967858;28;21018;-77
2022/04/27 13:03:33;;;;;;;6.80;5.53;;;16.60;99.90;;;;;;4968139;28;20467;-77
2022/04/27 13:06:00;;;;;;;6.60;5.67;;;16.60;99.90;;;;;;4967925;28;20562;-77
2022/04/27 13:08:29;;;;;;;6.00;5.20;;;16.70;99.90;;;;;;4967283;28;20458;-77
2022/04/27 13:13:42;;;;;;;7.17;5.60;;;16.60;99.90;;;;;;4968051;28;20886;-77
2022/04/27 13:16:09;;;;;;;7.13;5.87;;;16.60;99.90;;;;;;4968365;28;20519;-77
2022/04/27 13:18:36;;;;;;;6.73;5.90;;;16.50;99.90;;;;;;4967386;28;20463;-76
2022/04/27 13:21:03;;;;;;;6.20;5.60;;;16.50;99.90;;;;;;4967369;28;20471;-70
2022/04/27 13:23:31;;;;;;;6.37;5.67;;;16.50;99.90;;;;;;4965262;28;20544;-71
2022/04/27 13:25:58;;;;;;;7.93;6.67;;;16.40;99.90;;;;;;4966656;28;20497;-70
2022/04/27 13:28:24;;;;;;;7.60;5.80;;;16.40;99.90;;;;;;4965889;28;20835;-71
2022/04/27 13:30:52;;;;;;;8.53;5.33;;;16.30;99.90;;;;;;4966092;28;21094;-71
2022/04/27 13:33:18;;;;;;;6.37;5.30;;;16.30;99.90;;;;;;4966772;28;20461;-76
2022/04/27 13:35:45;;;;;;;6.00;5.40;;;16.40;99.90;;;;;;4966583;28;21007;-76
2022/04/27 13:38:12;;;;;;;8.60;5.20;;;16.50;99.90;;;;;;4966295;28;20548;-76
2022/04/27 13:40:41;;;;;;;6.30;5.70;;;16.80;99.90;;;;;;4966943;28;21000;-75
2022/04/27 13:43:08;;;;;;;9.60;5.60;;;16.80;99.90;;;;;;4969046;28;20457;-77
2022/04/27 13:45:35;;;;;;;7.67;5.40;;;16.90;99.90;;;;;;4967488;28;20496;-76
2022/04/27 13:48:02;;;;;;;5.20;4.60;;;16.90;99.90;;;;;;4966775;28;20478;-76
2022/04/27 13:50:29;;;;;;;6.40;5.53;;;17.00;99.90;;;;;;4966993;28;20452;-76
2022/04/27 13:52:56;;;;;;;6.33;5.70;;;17.10;99.90;;;;;;4967478;28;20457;-76
2022/04/27 13:55:24;;;;;;;5.50;5.00;;;17.20;99.90;;;;;;4967753;28;20961;-76
2022/04/27 13:57:54;;;;;;;5.93;4.97;;;17.20;99.90;;;;;;4967440;28;20456;-77
2022/04/27 14:00:22;;;;;;;7.17;5.67;;;17.30;99.90;;;;;;4967308;28;20511;-69
2022/04/27 14:02:49;;;;;;;6.73;5.53;;;17.50;99.90;;;;;;4966885;28;20459;-70
2022/04/27 14:05:16;;;;;;;6.77;5.47;;;17.60;99.90;;;;;;4966029;28;20527;-70
2022/04/27 14:07:44;;;;;;;5.37;4.87;;;17.70;99.90;;;;;;4966316;28;20515;-75
2022/04/27 14:10:12;;;;;;;6.00;5.40;;;17.80;99.90;;;;;;4967086;28;20539;-75
2022/04/27 14:15:26;;;;;;;6.10;5.50;;;17.90;99.90;;;;;;4972769;28;21150;-74
2022/04/27 14:18:10;;;;;;;5.63;4.80;;;18.00;99.90;;;;;;4972270;28;20539;-75
2022/04/27 14:20:39;;;;;;;7.43;5.17;;;18.10;99.90;;;;;;4973312;28;20472;-75
2022/04/27 14:23:06;;;;;;;5.47;4.90;;;18.10;99.90;;;;;;4973340;28;20468;-75
2022/04/27 14:25:33;;;;;;;5.47;4.60;;;18.00;99.90;;;;;;4972017;28;20580;-75
2022/04/27 14:28:00;;;;;;;7.13;5.07;;;18.00;99.90;;;;;;4971201;28;21472;-76
2022/04/27 14:30:28;;;;;;;8.43;5.00;;;18.00;99.90;;;;;;4971961;28;20463;-75
2022/04/27 14:32:55;;;;;;;6.90;4.67;;;17.90;99.90;;;;;;4972181;28;20456;-76
2022/04/27 14:35:22;;;;;;;7.03;5.50;;;17.90;99.90;;;;;;4972214;28;20479;-75
2022/04/27 14:37:49;;;;;;;5.93;5.07;;;17.80;99.90;;;;;;4971233;28;20571;-75
2022/04/27 14:40:16;;;;;;;6.17;5.50;;;17.80;99.90;;;;;;4971676;28;20460;-75
2022/04/27 14:42:45;;;;;;;5.80;5.20;;;17.80;99.90;;;;;;4972009;28;20458;-76
2022/04/27 14:45:13;;;;;;;5.93;5.27;;;17.80;99.90;;;;;;4971943;28;20503;-75
2022/04/27 14:47:41;;;;;;;5.70;5.10;;;17.70;99.90;;;;;;4971110;28;20466;-75
2022/04/27 14:50:10;;;;;;;5.30;4.63;;;17.60;99.90;;;;;;4971795;28;20837;-75
2022/04/27 14:52:38;;;;;;;5.30;4.80;;;17.60;99.90;;;;;;4971588;28;20507;-75
2022/04/27 14:55:07;;;;;;;5.77;4.80;;;17.60;99.90;;;;;;4972087;28;20491;-75
2022/04/27 14:57:34;;;;;;;5.83;5.23;;;17.60;99.90;;;;;;4971597;28;20456;-75
2022/04/27 15:00:01;;;;;;;6.37;5.77;;;17.50;99.90;;;;;;4971851;28;20472;-76
2022/04/27 15:02:29;;;;;;;4.90;4.50;;;17.60;99.90;;;;;;4971028;28;20494;-75
2022/04/27 15:04:57;;;;;;;6.30;5.30;;;17.60;99.90;;;;;;4971787;28;20470;-76
2022/04/27 15:07:24;;;;;;;5.40;4.90;;;17.60;99.90;;;;;;4970580;28;20459;-75
2022/04/27 15:09:51;;;;;;;5.73;4.97;;;17.50;99.90;;;;;;4972155;28;20460;-75
2022/04/27 15:12:18;;;;;;;6.27;5.67;;;17.50;99.90;;;;;;4972436;28;20543;-76
2022/04/27 15:14:45;;;;;;;5.70;5.03;;;17.50;99.90;;;;;;4972926;28;20547;-77
2022/04/27 15:17:12;;;;;;;5.10;4.67;;;17.50;99.90;;;;;;4974879;28;20511;-77
2022/04/27 15:19:40;;;;;;;6.40;4.97;;;17.50;99.90;;;;;;4978399;28;20462;-79
2022/04/27 15:24:54;;;;;;;5.20;4.70;;;17.50;99.90;;;;;;4971021;28;20519;-76
2022/04/27 15:27:21;;;;;;;5.10;4.47;;;17.60;99.90;;;;;;4969229;28;20528;-76
2022/04/27 15:29:49;;;;;;;6.13;5.30;;;17.70;99.90;;;;;;4969842;28;20467;-76
2022/04/27 15:32:16;;;;;;;5.37;4.70;;;17.80;99.90;;;;;;4969621;28;20491;-75
2022/04/27 15:34:42;;;;;;;4.90;4.43;;;18.00;99.90;;;;;;4970096;28;20458;-74
2022/04/27 15:37:14;;;;;;;5.60;4.70;;;18.20;99.90;;;;;;4968973;28;20459;-74
2022/04/27 15:39:41;;;;;;;8.73;4.83;;;18.30;99.90;;;;;;4969230;28;20944;-74
2022/04/27 15:42:08;;;;;;;5.37;4.87;;;18.50;99.90;;;;;;4969054;28;20841;-74
2022/04/27 15:44:36;;;;;;;4.97;4.50;;;18.60;99.90;;;;;;4969154;28;20456;-76
2022/04/27 15:47:04;;;;;;;5.53;4.10;;;18.70;99.90;;;;;;4968490;28;20496;-76
2022/04/27 15:49:31;;;;;;;8.73;4.40;;;18.80;99.90;;;;;;4969305;28;20532;-73
2022/04/27 15:51:59;;;;;;;5.97;4.40;;;18.90;99.90;;;;;;4969145;28;21063;-76
2022/04/27 15:54:28;;;;;;;4.30;3.90;;;19.00;99.90;;;;;;4969389;28;20460;-76
2022/04/27 15:56:56;;;;;;;4.40;4.00;;;19.20;99.90;;;;;;4968360;28;20542;-76
2022/04/27 15:59:23;;;;;;;6.47;4.37;;;19.30;99.90;;;;;;4969263;28;20559;-76
2022/04/27 16:01:51;;;;;;;5.20;4.70;;;19.30;99.90;;;;;;4968368;28;20480;-76
2022/04/27 16:04:18;;;;;;;5.43;4.27;;;19.40;99.90;;;;;;4968652;28;20949;-76
2022/04/27 16:06:45;;;;;;;5.37;4.87;;;19.40;99.90;;;;;;4968175;28;20596;-75
2022/04/27 16:09:13;;;;;;;5.90;4.40;;;19.50;99.90;;;;;;4968301;28;20543;-75
2022/04/27 16:11:42;;;;;;;4.97;4.47;;;19.60;99.90;;;;;;4968863;28;20473;-76
2022/04/27 16:14:10;;;;;;;5.47;4.93;;;19.60;99.90;;;;;;4968733;28;20470;-75
2022/04/27 16:16:37;;;;;;;5.30;4.20;;;19.60;99.90;;;;;;4967960;28;20467;-76
2022/04/27 16:19:04;;;;;;;16.67;4.83;;;19.50;99.90;;;;;;4968929;28;20449;-77
2022/04/27 16:24:15;;;;;;;8.73;4.10;;;19.50;99.90;;;;;;4968617;28;20423;-76
2022/04/27 16:26:43;;;;;;;5.57;4.50;;;19.50;99.90;;;;;;4968143;28;20591;-75
2022/04/27 16:29:10;;;;;;;7.63;4.60;;;19.40;99.90;;;;;;4968491;28;20464;-77
2022/04/27 16:31:39;;;;;;;9.30;4.83;;;19.40;99.90;;;;;;4968561;28;20473;-78
2022/04/27 16:34:06;;;;;;;5.97;4.77;;;19.30;99.90;;;;;;4968260;28;20872;-77
2022/04/27 16:36:34;;;;;;;8.10;6.27;;;19.30;99.90;;;;;;4967541;28;20461;-77
2022/04/27 16:39:01;;;;;;;5.30;4.70;;;19.20;99.90;;;;;;4968871;28;20460;-77
2022/04/27 16:41:28;;;;;;;5.70;5.07;;;19.20;99.90;;;;;;4968459;28;20567;-77
2022/04/27 16:44:00;;;;;;;6.50;4.90;;;19.10;99.90;;;;;;4968576;28;20463;-77
2022/04/27 16:46:27;;;;;;;4.80;4.30;;;19.00;99.90;;;;;;4967872;28;20595;-77
2022/04/27 16:48:59;;;;;;;5.30;4.80;;;19.00;99.90;;;;;;4968508;28;20461;-78
2022/04/27 16:51:30;;;;;;;5.87;4.43;;;18.90;99.90;;;;;;4968090;28;21266;-77
2022/04/27 16:53:57;;;;;;;10.30;5.00;;;18.70;99.90;;;;;;4968019;28;20522;-70
2022/04/27 16:56:24;;;;;;;6.93;4.97;;;18.70;99.90;;;;;;4967324;28;20457;-74
2022/04/27 16:58:51;;;;;;;11.97;5.70;;;18.60;99.90;;;;;;4968618;28;20457;-75
2022/04/27 17:01:20;;;;;;;8.50;5.20;;;18.50;99.90;;;;;;4968309;28;20999;-73
2022/04/27 17:03:47;;;;;;;8.17;5.13;;;18.50;99.90;;;;;;4968676;28;20460;-75
2022/04/27 17:06:14;;;;;;;6.30;4.70;;;18.40;99.90;;;;;;4967596;28;20531;-70
2022/04/27 17:08:43;;;;;;;6.30;4.03;;;18.30;99.90;;;;;;4969632;28;20540;-79
2022/04/27 17:11:12;;;;;;;6.03;5.27;;;18.30;99.90;;;;;;4974771;28;20487;-79
2022/04/27 17:13:40;;;;;;;7.20;4.67;;;18.20;99.90;;;;;;4975283;28;20892;-79
2022/04/27 17:16:09;;;;;;;5.03;4.47;;;18.10;99.90;;;;;;4969967;28;20948;-77
2022/04/27 17:18:37;;;;;;;6.87;4.40;;;18.00;99.90;;;;;;4967001;28;20925;-77